Marceline, Missouri
Current Conditions -  °F | °C
As of 10:55 AM on Friday 31 Oct 2014 (Local Time) from KIRK Reporting Station
Clear Clear  
Wind Chill: 28°   Ceiling: Unl
Heat Index: 37°   Visibility: 10mi
Dew Point: 21°   Wind: 15mph
Humidity: 52%   Direction: 350°N
Pressure: 30.43"   Gusts: 26mph
Location:  39.71°N, 92.95°W
Report Text: KIRK 311555Z AUTO 35013G23KT 10SM CLR 03/M06 A3043 RMK AO2 SLP314 T00281061
Loading
Personal Weather Stations






























Interactive Weather Map
Tropical Storm Tracking
New forecast layout! Learn more

10-Day Weather Forecast

Advertisements
Track Severe Weather on mobile